createdAt,value
2023-04-01T00:00:35.172Z,96598.81
2023-04-01T00:03:18.612Z,96600.32
2023-04-01T00:05:49.188Z,96601.56
2023-04-01T00:08:20.122Z,96597.90
2023-04-01T00:10:50.685Z,96599.54
2023-04-01T00:13:21.889Z,96603.23
2023-04-01T00:16:00.157Z,96599.36
2023-04-01T00:18:30.179Z,96596.04
2023-04-01T00:21:00.396Z,96593.66
2023-04-01T00:23:30.189Z,96583.12
2023-04-01T00:26:22.850Z,96576.24
2023-04-01T00:28:54.571Z,96565.77
2023-04-01T00:31:25.169Z,96565.93
2023-04-01T00:33:56.243Z,96561.62
2023-04-01T00:36:26.699Z,96558.17
2023-04-01T00:38:57.009Z,96559.64
2023-04-01T00:41:30.333Z,96559.07
2023-04-01T00:44:25.876Z,96553.58
2023-04-01T00:46:57.727Z,96539.30
2023-04-01T00:49:34.148Z,96544.25
2023-04-01T00:52:07.415Z,96544.28
2023-04-01T00:54:39.623Z,96539.31
2023-04-01T00:57:23.440Z,96537.63
2023-04-01T00:59:56.229Z,96531.58
2023-04-01T01:02:27.603Z,96532.27
2023-04-01T01:04:57.616Z,96522.34
2023-04-01T01:07:40.010Z,96516.09
2023-04-01T01:10:14.421Z,96516.55
2023-04-01T01:13:12.255Z,96510.83
2023-04-01T01:15:59.230Z,96511.20
2023-04-01T01:18:31.388Z,96518.71
2023-04-01T01:21:33.140Z,96515.30
2023-04-01T01:24:12.349Z,96513.42
2023-04-01T01:26:59.945Z,96511.65
2023-04-01T01:29:50.843Z,96509.92
2023-04-01T01:33:02.119Z,96504.80
2023-04-01T01:35:45.788Z,96497.31
2023-04-01T01:38:24.421Z,96499.47
2023-04-01T01:41:09.053Z,96499.46
2023-04-01T01:43:43.702Z,96502.49
2023-04-01T01:46:21.260Z,96504.26
2023-04-01T01:48:52.974Z,96504.86
2023-04-01T01:51:25.374Z,96511.36
2023-04-01T01:53:55.669Z,96512.91
2023-04-01T01:56:30.734Z,96521.11
2023-04-01T01:59:10.642Z,96521.44
2023-04-01T02:01:45.782Z,96520.75
2023-04-01T02:04:22.010Z,96522.65
2023-04-01T02:07:04.249Z,96523.23
2023-04-01T02:09:35.802Z,96527.08
2023-04-01T02:12:14.273Z,96532.85
2023-04-01T02:15:08.552Z,96534.53
2023-04-01T02:17:45.921Z,96536.83
2023-04-01T02:20:24.134Z,96539.39
2023-04-01T02:23:01.222Z,96542.91
2023-04-01T02:25:37.485Z,96545.56
2023-04-01T02:28:09.063Z,96542.55
2023-04-01T02:30:41.785Z,96532.77
2023-04-01T02:33:13.973Z,96520.52
2023-04-01T02:35:44.736Z,96524.46
2023-04-01T02:38:17.097Z,96518.33
2023-04-01T02:40:50.951Z,96513.11
2023-04-01T02:43:22.841Z,96509.83
2023-04-01T02:45:53.672Z,96497.82
2023-04-01T02:48:24.047Z,96494.33
2023-04-01T02:50:53.881Z,96491.95
2023-04-01T02:53:23.342Z,96490.15
2023-04-01T02:55:53.858Z,96492.48
2023-04-01T02:58:23.064Z,96494.18
2023-04-01T03:00:52.606Z,96493.69
2023-04-01T03:03:23.136Z,96490.70
2023-04-01T03:05:53.147Z,96491.93
2023-04-01T03:08:23.284Z,96490.59
2023-04-01T03:10:53.182Z,96498.06
2023-04-01T03:13:27.595Z,96497.32
2023-04-01T03:15:58.456Z,96497.45
2023-04-01T03:18:28.356Z,96493.55
2023-04-01T03:20:58.901Z,96496.77
2023-04-01T03:23:29.050Z,96494.98
2023-04-01T03:25:58.823Z,96495.75
2023-04-01T03:28:30.831Z,96489.64
2023-04-01T03:31:01.639Z,96484.36
2023-04-01T03:33:33.175Z,96482.83
2023-04-01T03:36:04.814Z,96481.54
2023-04-01T03:38:36.814Z,96478.38
2023-04-01T03:41:07.747Z,96478.52
2023-04-01T03:43:38.201Z,96476.66
2023-04-01T03:46:07.793Z,96472.77
2023-04-01T03:48:38.921Z,96479.70
2023-04-01T03:51:10.014Z,96479.20
2023-04-01T03:53:39.502Z,96482.20
2023-04-01T03:56:10.716Z,96487.95
2023-04-01T03:58:40.390Z,96490.70
2023-04-01T04:01:24.756Z,96494.71
2023-04-01T04:03:58.068Z,96488.95
2023-04-01T04:06:34.132Z,96486.16
2023-04-01T04:09:03.786Z,96487.79
2023-04-01T04:11:36.395Z,96489.48
2023-04-01T04:14:08.548Z,96483.75
2023-04-01T04:16:38.195Z,96486.79
2023-04-01T04:19:09.162Z,96487.08
2023-04-01T04:21:42.206Z,96485.94
2023-04-01T04:24:11.989Z,96479.71
2023-04-01T04:27:06.135Z,96480.41
2023-04-01T04:29:36.464Z,96474.29
2023-04-01T04:32:06.604Z,96474.95
2023-04-01T04:34:36.430Z,96476.52
2023-04-01T04:37:07.618Z,96472.35
2023-04-01T04:39:39.059Z,96480.02
2023-04-01T04:42:09.009Z,96472.41
2023-04-01T04:44:39.136Z,96466.45
2023-04-01T04:47:08.645Z,96468.98
2023-04-01T04:49:42.668Z,96471.50
2023-04-01T04:52:13.805Z,96464.58
2023-04-01T04:54:44.235Z,96460.75
2023-04-01T04:57:14.847Z,96459.92
2023-04-01T04:59:51.855Z,96462.92
2023-04-01T05:02:40.552Z,96458.40
2023-04-01T05:05:11.975Z,96456.03
2023-04-01T05:07:44.657Z,96456.80
2023-04-01T05:10:14.740Z,96457.45
2023-04-01T05:12:44.719Z,96459.73
2023-04-01T05:15:20.691Z,96457.60
2023-04-01T05:17:51.950Z,96454.52
2023-04-01T05:20:22.932Z,96446.36
2023-04-01T05:23:03.309Z,96441.23
2023-04-01T05:25:32.969Z,96442.15
2023-04-01T05:28:04.113Z,96443.30
2023-04-01T05:30:50.130Z,96433.70
2023-04-01T05:33:40.520Z,96435.52
2023-04-01T05:36:21.604Z,96437.73
2023-04-01T05:38:59.632Z,96436.32
2023-04-01T05:41:29.512Z,96425.98
2023-04-01T05:44:04.814Z,96430.59
2023-04-01T05:47:06.205Z,96429.20
2023-04-01T05:49:36.172Z,96427.31
2023-04-01T05:52:09.416Z,96428.80
2023-04-01T05:54:40.146Z,96427.27
2023-04-01T05:57:21.388Z,96425.45
2023-04-01T05:59:51.490Z,96424.34
2023-04-01T06:02:40.907Z,96426.22
2023-04-01T06:05:29.524Z,96431.55
2023-04-01T06:08:07.620Z,96428.72
2023-04-01T06:11:01.119Z,96415.91
2023-04-01T06:13:45.917Z,96415.61
2023-04-01T06:16:42.126Z,96423.26
2023-04-01T06:19:54.126Z,96432.50
2023-04-01T06:23:02.936Z,96426.71
2023-04-01T06:26:02.689Z,96427.33
2023-04-01T06:28:45.252Z,96428.52
2023-04-01T06:31:34.439Z,96426.88
2023-04-01T06:34:24.400Z,96423.52
2023-04-01T06:37:08.284Z,96424.98
2023-04-01T06:40:02.322Z,96422.25
2023-04-01T06:43:04.934Z,96423.66
2023-04-01T06:46:33.727Z,96420.78
2023-04-01T06:50:04.747Z,96421.74
2023-04-01T06:53:17.268Z,96423.20
2023-04-01T06:56:28.042Z,96417.41
2023-04-01T06:59:19.075Z,96414.46
2023-04-01T07:01:59.920Z,96424.93
2023-04-01T07:04:37.341Z,96428.33
2023-04-01T07:07:29.539Z,96429.31
2023-04-01T07:10:12.179Z,96428.60
2023-04-01T07:13:28.756Z,96429.90
2023-04-01T07:16:32.123Z,96434.91
2023-04-01T07:19:19.187Z,96427.43
2023-04-01T07:22:23.142Z,96427.54
2023-04-01T07:25:41.031Z,96432.23
2023-04-01T07:28:35.389Z,96433.71
2023-04-01T07:31:33.553Z,96429.39
2023-04-01T07:41:13.274Z,96432.30
2023-04-01T07:43:55.726Z,96436.39
2023-04-01T07:47:08.635Z,96433.33
2023-04-01T07:49:58.233Z,96426.91
2023-04-01T07:53:04.266Z,96426.12
2023-04-01T07:55:43.799Z,96426.09
2023-04-01T07:58:32.797Z,96429.81
2023-04-01T08:01:16.777Z,96425.84
2023-04-01T08:04:23.490Z,96429.05
2023-04-01T08:07:34.813Z,96428.17
2023-04-01T08:11:00.434Z,96434.02
2023-04-01T08:14:43.857Z,96429.09
2023-04-01T08:17:38.379Z,96427.02
2023-04-01T08:20:44.498Z,96424.14
2023-04-01T08:23:31.958Z,96431.09
2023-04-01T08:26:18.049Z,96428.54
2023-04-01T08:29:06.498Z,96420.92
2023-04-01T08:31:57.362Z,96418.09
2023-04-01T08:34:33.842Z,96409.63
2023-04-01T08:37:30.052Z,96405.88
2023-04-01T08:40:26.167Z,96408.02
2023-04-01T08:43:18.426Z,96420.41
2023-04-01T08:45:58.072Z,96429.96
2023-04-01T08:48:38.440Z,96425.05
2023-04-01T08:51:15.892Z,96414.88
2023-04-01T08:54:33.864Z,96403.96
2023-04-01T08:57:22.840Z,96395.21
2023-04-01T09:01:02.741Z,96396.64
2023-04-01T09:03:51.115Z,96404.70
2023-04-01T09:15:38.450Z,96402.49
2023-04-01T09:18:26.347Z,96398.65
2023-04-01T09:21:04.608Z,96396.98
2023-04-01T09:24:15.163Z,96390.08
2023-04-01T09:30:40.857Z,96380.08
2023-04-01T09:33:19.722Z,96368.11
2023-04-01T09:36:03.924Z,96360.80
2023-04-01T09:38:52.440Z,96359.94
2023-04-01T09:41:35.572Z,96361.75
2023-04-01T09:44:56.604Z,96361.81
2023-04-01T09:47:58.434Z,96362.48
2023-04-01T09:51:04.839Z,96357.46
2023-04-01T09:53:41.581Z,96347.18
2023-04-01T09:56:11.526Z,96344.89
2023-04-01T09:59:15.446Z,96342.24
2023-04-01T10:02:40.870Z,96342.77
2023-04-01T10:05:46.746Z,96329.08
2023-04-01T10:08:54.569Z,96332.95
2023-04-01T10:11:50.408Z,96337.83
2023-04-01T10:14:45.052Z,96345.75
2023-04-01T10:17:24.722Z,96340.67
2023-04-01T10:20:44.219Z,96349.81
2023-04-01T10:24:05.145Z,96348.52
2023-04-01T10:27:25.766Z,96352.54
2023-04-01T10:31:37.389Z,96355.05
2023-04-01T10:34:29.914Z,96351.54
2023-04-01T10:37:55.956Z,96355.08
2023-04-01T10:40:43.472Z,96359.67
2023-04-01T10:44:15.948Z,96346.40
2023-04-01T10:47:30.950Z,96343.50
2023-04-01T10:50:36.602Z,96346.52
2023-04-01T10:58:10.376Z,96343.75
2023-04-01T11:02:04.104Z,96345.63
2023-04-01T11:05:47.641Z,96342.37
2023-04-01T11:08:47.516Z,96341.40
2023-04-01T11:11:53.647Z,96338.33
2023-04-01T11:14:55.838Z,96333.84
2023-04-01T11:17:58.754Z,96330.07
2023-04-01T11:21:05.168Z,96328.98
2023-04-01T11:24:16.481Z,96324.31
2023-04-01T11:27:09.043Z,96323.11
2023-04-01T11:30:22.936Z,96323.80
2023-04-01T11:33:18.250Z,96323.24
2023-04-01T11:36:11.157Z,96321.98
2023-04-01T11:39:12.387Z,96325.13
2023-04-01T11:42:43.023Z,96319.02
2023-04-01T11:46:07.601Z,96315.48
2023-04-01T11:48:44.860Z,96316.13
2023-04-01T11:51:58.541Z,96319.19
2023-04-01T11:55:44.437Z,96316.36
2023-04-01T11:59:02.778Z,96318.99
2023-04-01T12:01:58.887Z,96313.86
2023-04-01T12:05:09.178Z,96311.84
2023-04-01T12:12:27.195Z,96310.32
2023-04-01T12:15:28.960Z,96309.65
2023-04-01T12:18:26.998Z,96313.44
2023-04-01T12:25:44.693Z,96317.85
2023-04-01T12:29:03.702Z,96317.98
2023-04-01T12:31:48.740Z,96313.72
2023-04-01T12:34:44.969Z,96317.07
2023-04-01T12:37:54.861Z,96320.11
2023-04-01T12:40:50.827Z,96321.59
2023-04-01T12:44:03.470Z,96323.55
2023-04-01T12:47:06.730Z,96325.09
2023-04-01T12:49:56.181Z,96322.76
2023-04-01T12:53:05.270Z,96324.02
2023-04-01T12:55:44.381Z,96318.31
2023-04-01T12:58:48.840Z,96318.08
2023-04-01T13:02:03.169Z,96314.26
2023-04-01T13:05:18.911Z,96315.90
2023-04-01T13:08:23.687Z,96317.19
2023-04-01T13:11:08.528Z,96317.02
2023-04-01T13:13:44.166Z,96317.44
2023-04-01T13:16:23.569Z,96321.39
2023-04-01T13:19:09.142Z,96320.13
2023-04-01T13:22:00.491Z,96320.92
2023-04-01T13:24:57.489Z,96319.02
2023-04-01T13:27:42.682Z,96311.87
2023-04-01T13:30:38.503Z,96310.55
2023-04-01T13:33:37.728Z,96309.89
2023-04-01T13:40:55.696Z,96307.39
2023-04-01T13:44:03.543Z,96313.79
2023-04-01T13:47:21.734Z,96315.48
2023-04-01T13:50:17.220Z,96313.08
2023-04-01T13:53:10.169Z,96309.25
2023-04-01T13:56:04.245Z,96307.16
2023-04-01T13:59:12.908Z,96304.15
2023-04-01T14:02:01.396Z,96304.79
2023-04-01T14:05:06.585Z,96299.39
2023-04-01T14:07:44.643Z,96301.77
2023-04-01T14:10:31.123Z,96301.74
2023-04-01T14:13:10.729Z,96297.86
2023-04-01T14:15:58.357Z,96299.66
2023-04-01T14:18:50.700Z,96300.52
2023-04-01T14:21:29.223Z,96303.79
2023-04-01T14:24:31.671Z,96306.21
2023-04-01T14:27:26.253Z,96305.67
2023-04-01T14:30:27.295Z,96308.49
2023-04-01T14:32:58.531Z,96309.75
2023-04-01T14:35:44.340Z,96307.93
2023-04-01T14:38:45.644Z,96305.46
2023-04-01T14:41:37.062Z,96302.53
2023-04-01T14:44:43.108Z,96300.59
2023-04-01T14:47:59.906Z,96299.08
2023-04-01T14:50:43.866Z,96299.23
2023-04-01T14:53:28.870Z,96299.52
2023-04-01T14:56:00.600Z,96298.30
2023-04-01T14:58:59.176Z,96300.27
2023-04-01T15:02:23.911Z,96304.38
2023-04-01T15:05:32.180Z,96303.88
2023-04-01T15:09:07.716Z,96307.20
2023-04-01T15:11:53.570Z,96303.14
2023-04-01T15:15:10.927Z,96303.81
2023-04-01T15:18:10.794Z,96303.05
2023-04-01T15:21:17.239Z,96304.31
2023-04-01T15:24:36.736Z,96301.98
2023-04-01T15:27:25.639Z,96305.05
2023-04-01T15:30:27.667Z,96304.52
2023-04-01T15:33:16.320Z,96306.22
2023-04-01T15:36:19.202Z,96311.41
2023-04-01T15:39:03.940Z,96313.84
2023-04-01T15:42:13.735Z,96314.83
2023-04-01T15:44:58.269Z,96319.08
2023-04-01T15:47:34.840Z,96322.52
2023-04-01T15:50:07.248Z,96326.54
2023-04-01T15:52:43.585Z,96332.64
2023-04-01T15:55:40.516Z,96331.55
2023-04-01T15:58:45.591Z,96333.31
2023-04-01T16:01:42.790Z,96335.02
2023-04-01T16:04:31.094Z,96344.08
2023-04-01T16:07:21.982Z,96341.03
2023-04-01T16:10:09.295Z,96344.69
2023-04-01T16:12:51.679Z,96348.99
2023-04-01T16:15:50.659Z,96345.77
2023-04-01T16:19:15.368Z,96347.42
2023-04-01T16:22:17.426Z,96351.43
2023-04-01T16:25:30.924Z,96355.22
2023-04-01T16:28:44.652Z,96358.65
2023-04-01T16:31:33.081Z,96366.13
2023-04-01T16:34:24.046Z,96363.94
2023-04-01T16:37:22.084Z,96364.45
2023-04-01T16:40:20.042Z,96358.38
2023-04-01T16:42:49.567Z,96364.92
2023-04-01T16:45:42.307Z,96369.12
2023-04-01T16:48:18.171Z,96374.88
2023-04-01T16:51:18.884Z,96375.74
2023-04-01T16:54:16.586Z,96376.66
2023-04-01T16:56:55.697Z,96379.32
2023-04-01T16:59:31.465Z,96384.73
2023-04-01T17:02:08.800Z,96385.38
2023-04-01T17:09:51.154Z,96396.17
2023-04-01T17:12:27.307Z,96396.57
2023-04-01T17:14:59.949Z,96399.44
2023-04-01T17:17:51.089Z,96400.70
2023-04-01T17:20:55.516Z,96401.81
2023-04-01T17:23:56.412Z,96402.88
2023-04-01T17:26:35.516Z,96405.42
2023-04-01T17:29:39.831Z,96411.33
2023-04-01T17:32:47.011Z,96408.52
2023-04-01T17:35:34.469Z,96407.80
2023-04-01T17:38:43.699Z,96413.83
2023-04-01T17:41:30.870Z,96418.73
2023-04-01T17:44:18.963Z,96418.75
2023-04-01T17:47:07.146Z,96420.08
2023-04-01T17:49:54.397Z,96420.55
2023-04-01T17:52:47.202Z,96426.60
2023-04-01T17:55:48.871Z,96429.55
2023-04-01T17:58:43.437Z,96433.23
2023-04-01T18:01:48.497Z,96433.73
2023-04-01T18:04:21.305Z,96436.73
2023-04-01T18:07:01.050Z,96435.15
2023-04-01T18:09:47.309Z,96436.37
2023-04-01T18:12:35.386Z,96439.09
2023-04-01T18:15:14.228Z,96445.60
2023-04-01T18:17:48.665Z,96444.02
2023-04-01T18:21:00.165Z,96443.19
2023-04-01T18:23:33.760Z,96444.92
2023-04-01T18:26:37.735Z,96449.90
2023-04-01T18:29:49.382Z,96451.70
2023-04-01T18:32:40.649Z,96458.39
2023-04-01T18:35:58.670Z,96459.67
2023-04-01T18:38:36.263Z,96464.79
2023-04-01T18:41:42.415Z,96465.28
2023-04-01T18:44:37.952Z,96466.82
2023-04-01T18:47:16.517Z,96468.61
2023-04-01T18:50:23.837Z,96474.10
2023-04-01T18:53:22.705Z,96478.63
2023-04-01T18:56:36.754Z,96481.30
2023-04-01T18:59:42.425Z,96484.59
2023-04-01T19:02:45.938Z,96487.32
2023-04-01T19:05:31.030Z,96493.23
2023-04-01T19:08:31.229Z,96492.92
2023-04-01T19:11:34.352Z,96496.63
2023-04-01T19:14:54.821Z,96496.12
2023-04-01T19:17:57.096Z,96493.40
2023-04-01T19:21:11.938Z,96494.59
2023-04-01T19:24:03.211Z,96497.02
2023-04-01T19:26:49.454Z,96498.64
2023-04-01T19:29:29.413Z,96501.20
2023-04-01T19:32:17.268Z,96501.44
2023-04-01T19:35:18.552Z,96505.85
2023-04-01T19:38:18.968Z,96502.69
2023-04-01T19:41:05.458Z,96504.32
2023-04-01T19:44:19.184Z,96508.45
2023-04-01T19:47:31.134Z,96508.98
2023-04-01T19:50:23.722Z,96513.23
2023-04-01T19:53:14.901Z,96512.23
2023-04-01T19:55:59.206Z,96509.36
2023-04-01T19:58:45.832Z,96510.20
2023-04-01T20:01:44.861Z,96508.92
2023-04-01T20:04:34.225Z,96507.35
2023-04-01T20:07:31.562Z,96509.60
2023-04-01T20:10:28.314Z,96508.73
2023-04-01T20:13:14.603Z,96511.45
2023-04-01T20:16:04.175Z,96508.95
2023-04-01T20:18:48.865Z,96509.28
2023-04-01T20:21:48.301Z,96507.38
2023-04-01T20:24:47.704Z,96511.94
2023-04-01T20:27:28.323Z,96516.02
2023-04-01T20:30:11.012Z,96516.66
2023-04-01T20:33:04.188Z,96517.26
2023-04-01T20:36:29.337Z,96519.22
2023-04-01T20:39:26.402Z,96521.83
2023-04-01T20:42:27.711Z,96520.25
2023-04-01T20:45:29.244Z,96519.80
2023-04-01T20:48:12.739Z,96519.20
2023-04-01T20:50:47.334Z,96518.32
2023-04-01T20:53:23.279Z,96523.46
2023-04-01T20:56:29.749Z,96523.67
2023-04-01T20:59:05.128Z,96524.69
2023-04-01T21:02:14.672Z,96528.30
2023-04-01T21:05:03.272Z,96532.73
2023-04-01T21:07:45.033Z,96533.46
2023-04-01T21:10:25.099Z,96528.63
2023-04-01T21:13:24.938Z,96531.17
2023-04-01T21:16:23.487Z,96528.34
2023-04-01T21:19:06.774Z,96531.39
2023-04-01T21:21:49.635Z,96532.30
2023-04-01T21:24:34.956Z,96533.69
2023-04-01T21:27:15.924Z,96533.95
2023-04-01T21:30:00.298Z,96533.54
2023-04-01T21:32:40.277Z,96535.71
2023-04-01T21:35:47.039Z,96540.89
2023-04-01T21:38:38.878Z,96539.59
2023-04-01T21:41:29.359Z,96541.19
2023-04-01T21:44:41.692Z,96546.41
2023-04-01T21:47:46.179Z,96544.11
2023-04-01T21:50:29.583Z,96544.15
2023-04-01T21:53:29.918Z,96543.04
2023-04-01T21:56:21.416Z,96545.17
2023-04-01T21:59:35.567Z,96544.23
2023-04-01T22:02:20.244Z,96548.02
2023-04-01T22:05:17.234Z,96550.02
2023-04-01T22:08:11.340Z,96548.58
2023-04-01T22:10:54.828Z,96551.80
2023-04-01T22:13:45.314Z,96546.76
2023-04-01T22:16:23.872Z,96552.83
2023-04-01T22:19:09.220Z,96555.48
2023-04-01T22:21:54.008Z,96556.34
2023-04-01T22:24:56.080Z,96557.67
2023-04-01T22:27:57.340Z,96559.77
2023-04-01T22:30:27.690Z,96559.25
2023-04-01T22:33:32.067Z,96559.45
2023-04-01T22:36:14.617Z,96555.59
2023-04-01T22:38:46.786Z,96556.42
2023-04-01T22:41:23.150Z,96560.11
2023-04-01T22:43:52.979Z,96563.90
2023-04-01T22:46:54.497Z,96565.92
2023-04-01T22:49:49.818Z,96564.04
2023-04-01T22:53:07.111Z,96566.10
2023-04-01T22:55:53.098Z,96568.75
2023-04-01T22:58:50.018Z,96568.59
2023-04-01T23:01:31.269Z,96565.64
2023-04-01T23:04:07.746Z,96569.02
2023-04-01T23:06:49.798Z,96569.47
2023-04-01T23:09:29.243Z,96571.55
2023-04-01T23:12:12.094Z,96574.25
2023-04-01T23:15:16.044Z,96572.69
2023-04-01T23:18:14.876Z,96576.17
2023-04-01T23:21:18.335Z,96570.31
2023-04-01T23:24:01.662Z,96572.91
2023-04-01T23:26:55.769Z,96573.64
2023-04-01T23:29:27.365Z,96574.70
2023-04-01T23:32:06.388Z,96577.70
2023-04-01T23:34:37.779Z,96580.33
2023-04-01T23:37:18.276Z,96578.94
2023-04-01T23:39:58.843Z,96581.92
2023-04-01T23:42:42.759Z,96579.78
2023-04-01T23:45:21.340Z,96578.02
2023-04-01T23:48:04.492Z,96582.19
2023-04-01T23:50:34.596Z,96587.92
2023-04-01T23:53:15.346Z,96587.16
2023-04-01T23:55:45.440Z,96589.33
2023-04-01T23:58:37.539Z,96588.64
